createdAt,value
2017-04-06T00:01:15.718Z,23.03
2017-04-06T00:02:15.348Z,23.02
2017-04-06T00:03:15.586Z,23.05
2017-04-06T00:04:15.530Z,22.99
2017-04-06T00:05:15.460Z,22.94
2017-04-06T00:06:15.403Z,22.98
2017-04-06T00:07:15.412Z,22.96
2017-04-06T00:08:15.273Z,22.91
2017-04-06T00:09:15.209Z,23.05
2017-04-06T00:10:15.146Z,22.98
2017-04-06T00:11:15.085Z,23.02
2017-04-06T00:12:15.037Z,23
2017-04-06T00:13:15.027Z,22.88
2017-04-06T00:14:14.895Z,23
2017-04-06T00:15:14.833Z,22.98
2017-04-06T00:16:14.782Z,23
2017-04-06T00:17:14.710Z,23.03
2017-04-06T00:18:14.646Z,23.02
2017-04-06T00:19:14.588Z,22.93
2017-04-06T00:20:14.523Z,22.96
2017-04-06T00:21:14.459Z,22.94
2017-04-06T00:22:14.396Z,22.88
2017-04-06T00:23:14.331Z,22.99
2017-04-06T00:24:14.273Z,23
2017-04-06T00:25:14.209Z,23.02
2017-04-06T00:26:13.841Z,22.94
2017-04-06T00:27:14.083Z,23.02
2017-04-06T00:28:14.020Z,22.94
2017-04-06T00:29:13.657Z,23.02
2017-04-06T00:30:13.895Z,22.9
2017-04-06T00:31:13.832Z,22.98
2017-04-06T00:32:13.771Z,22.91
2017-04-06T00:33:13.707Z,23
2017-04-06T00:34:13.647Z,22.94
2017-04-06T00:35:13.583Z,22.98
2017-04-06T00:36:13.520Z,22.96
2017-04-06T00:37:13.456Z,22.98
2017-04-06T00:38:13.393Z,22.99
2017-04-06T00:39:13.339Z,22.99
2017-04-06T00:40:13.324Z,22.98
2017-04-06T00:41:13.208Z,22.98
2017-04-06T00:42:13.196Z,22.98
2017-04-06T00:43:13.082Z,22.9
2017-04-06T00:44:13.019Z,22.91
2017-04-06T00:45:12.657Z,23.05
2017-04-06T00:46:12.898Z,23.05
2017-04-06T00:47:12.833Z,22.91
2017-04-06T00:48:12.768Z,23
2017-04-06T00:49:12.705Z,23
2017-04-06T00:50:12.641Z,22.99
2017-04-06T00:51:12.283Z,23.03
2017-04-06T00:52:12.524Z,22.94
2017-04-06T00:53:12.453Z,23
2017-04-06T00:54:12.394Z,23.03
2017-04-06T00:55:12.331Z,22.94
2017-04-06T00:56:11.968Z,23.05
2017-04-06T00:57:12.206Z,23.03
2017-04-06T00:58:12.142Z,22.99
2017-04-06T00:59:12.078Z,22.98
2017-04-06T01:00:12.019Z,22.98
2017-04-06T01:01:11.983Z,22.99
2017-04-06T01:02:11.892Z,23.02
2017-04-06T01:03:11.828Z,23
2017-04-06T01:04:11.768Z,22.9
2017-04-06T01:05:11.705Z,22.98
2017-04-06T01:06:11.336Z,23.02
2017-04-06T01:07:11.579Z,22.99
2017-04-06T01:08:11.214Z,22.91
2017-04-06T01:09:11.453Z,22.9
2017-04-06T01:10:11.390Z,23
2017-04-06T01:11:11.338Z,22.98
2017-04-06T01:12:11.265Z,23.02
2017-04-06T01:13:11.356Z,23.02
2017-04-06T01:14:11.139Z,22.96
2017-04-06T01:15:11.076Z,23
2017-04-06T01:16:11.024Z,22.94
2017-04-06T01:17:10.649Z,23
2017-04-06T01:18:10.892Z,22.91
2017-04-06T01:19:10.827Z,22.91
2017-04-06T01:20:10.460Z,22.98
2017-04-06T01:21:10.699Z,22.98
2017-04-06T01:22:10.335Z,22.99
2017-04-06T01:23:10.577Z,22.94
2017-04-06T01:24:10.208Z,22.94
2017-04-06T01:25:10.457Z,22.98
2017-04-06T01:26:10.388Z,23.05
2017-04-06T01:27:10.324Z,23.03
2017-04-06T01:28:10.263Z,22.99
2017-04-06T01:29:10.199Z,23.02
2017-04-06T01:30:10.138Z,22.96
2017-04-06T01:31:10.075Z,22.91
2017-04-06T01:32:10.011Z,22.96
2017-04-06T01:33:09.658Z,22.98
2017-04-06T01:34:09.913Z,22.9
2017-04-06T01:35:09.828Z,22.96
2017-04-06T01:36:09.170Z,22.9
2017-04-06T01:37:09.702Z,22.98
2017-04-06T01:38:09.335Z,22.99
2017-04-06T01:39:09.574Z,22.94
2017-04-06T01:40:09.513Z,22.99
2017-04-06T01:41:09.454Z,22.93
2017-04-06T01:42:09.392Z,22.99
2017-04-06T01:43:09.048Z,22.93
2017-04-06T01:44:09.262Z,22.93
2017-04-06T01:45:09.201Z,22.91
2017-04-06T01:46:09.157Z,22.98
2017-04-06T01:47:09.075Z,22.93
2017-04-06T01:48:09.011Z,22.94
2017-04-06T01:49:08.951Z,22.96
2017-04-06T01:50:08.887Z,22.9
2017-04-06T01:51:08.825Z,22.9
2017-04-06T01:52:08.457Z,22.94
2017-04-06T01:53:08.698Z,22.88
2017-04-06T01:54:08.636Z,22.91
2017-04-06T01:55:08.573Z,22.98
2017-04-06T01:56:08.511Z,22.94
2017-04-06T01:57:08.448Z,22.91
2017-04-06T01:58:08.079Z,22.94
2017-04-06T01:59:08.321Z,22.91
2017-04-06T02:00:08.263Z,23.02
2017-04-06T02:01:08.200Z,23
2017-04-06T02:02:07.830Z,22.96
2017-04-06T02:03:08.072Z,22.98
2017-04-06T02:04:08.018Z,23
2017-04-06T02:05:07.954Z,22.94
2017-04-06T02:06:07.886Z,22.96
2017-04-06T02:07:07.827Z,23
2017-04-06T02:08:07.762Z,22.98
2017-04-06T02:09:07.705Z,22.9
2017-04-06T02:10:07.681Z,22.9
2017-04-06T02:11:07.589Z,22.99
2017-04-06T02:12:07.507Z,22.96
2017-04-06T02:13:07.444Z,22.93
2017-04-06T02:14:07.383Z,22.87
2017-04-06T02:15:07.332Z,22.93
2017-04-06T02:16:07.268Z,23
2017-04-06T02:17:07.196Z,22.96
2017-04-06T02:18:07.133Z,22.94
2017-04-06T02:19:07.069Z,22.96
2017-04-06T02:20:06.714Z,22.93
2017-04-06T02:21:06.945Z,22.99
2017-04-06T02:22:06.886Z,22.9
2017-04-06T02:23:06.821Z,23.02
2017-04-06T02:24:06.756Z,22.91
2017-04-06T02:25:06.701Z,22.98
2017-04-06T02:26:06.634Z,22.88
2017-04-06T02:27:06.576Z,22.94
2017-04-06T02:28:06.506Z,22.98
2017-04-06T02:29:06.451Z,22.9
2017-04-06T02:30:06.382Z,23
2017-04-06T02:31:06.343Z,22.93
2017-04-06T02:32:06.259Z,22.94
2017-04-06T02:33:06.210Z,22.98
2017-04-06T02:34:06.133Z,22.9
2017-04-06T02:35:06.083Z,22.96
2017-04-06T02:36:06.022Z,22.99
2017-04-06T02:37:05.949Z,22.94
2017-04-06T02:38:05.590Z,23
2017-04-06T02:39:05.821Z,23
2017-04-06T02:40:05.470Z,22.93
2017-04-06T02:41:05.695Z,22.98
2017-04-06T02:42:05.628Z,22.93
2017-04-06T02:43:05.266Z,22.96
2017-04-06T02:44:05.507Z,22.85
2017-04-06T02:45:05.441Z,22.94
2017-04-06T02:46:05.378Z,22.88
2017-04-06T02:47:05.319Z,22.98
2017-04-06T02:48:05.255Z,22.99
2017-04-06T02:49:05.193Z,23
2017-04-06T02:50:05.127Z,22.94
2017-04-06T02:51:05.069Z,22.98
2017-04-06T02:52:05.010Z,22.94
2017-04-06T02:53:04.940Z,23
2017-04-06T02:54:04.878Z,23.02
2017-04-06T02:55:04.819Z,22.93
2017-04-06T02:56:04.753Z,22.9
2017-04-06T02:57:04.691Z,22.88
2017-04-06T02:58:04.631Z,22.91
2017-04-06T02:59:04.564Z,22.98
2017-04-06T03:00:04.502Z,22.93
2017-04-06T03:01:04.453Z,22.93
2017-04-06T03:02:04.384Z,22.94
2017-04-06T03:03:04.314Z,23
2017-04-06T03:04:04.249Z,22.94
2017-04-06T03:05:04.188Z,22.94
2017-04-06T03:06:04.130Z,22.96
2017-04-06T03:07:04.063Z,22.99
2017-04-06T03:08:04.001Z,22.91
2017-04-06T03:09:03.941Z,22.96
2017-04-06T03:10:03.878Z,22.96
2017-04-06T03:11:03.814Z,22.9
2017-04-06T03:12:03.454Z,23
2017-04-06T03:13:03.687Z,23
2017-04-06T03:14:03.647Z,22.99
2017-04-06T03:15:03.564Z,22.94
2017-04-06T03:16:03.507Z,22.93
2017-04-06T03:17:03.437Z,22.91
2017-04-06T03:18:03.377Z,22.99
2017-04-06T03:19:03.312Z,22.96
2017-04-06T03:20:03.250Z,22.94
2017-04-06T03:21:03.186Z,22.9
2017-04-06T03:22:03.124Z,22.98
2017-04-06T03:23:03.061Z,22.93
2017-04-06T03:24:03.001Z,23
2017-04-06T03:25:02.936Z,22.87
2017-04-06T03:26:02.875Z,22.98
2017-04-06T03:27:02.816Z,22.9
2017-04-06T03:28:02.752Z,22.98
2017-04-06T03:29:02.687Z,22.96
2017-04-06T03:30:02.623Z,22.93
2017-04-06T03:31:02.560Z,22.94
2017-04-06T03:32:02.527Z,22.93
2017-04-06T03:33:02.433Z,22.98
2017-04-06T03:34:02.376Z,22.91
2017-04-06T03:35:02.311Z,22.94
2017-04-06T03:36:02.247Z,23
2017-04-06T03:37:02.186Z,22.98
2017-04-06T03:38:02.121Z,22.99
2017-04-06T03:39:02.058Z,22.9
2017-04-06T03:40:01.997Z,22.99
2017-04-06T03:41:01.939Z,23
2017-04-06T03:42:01.871Z,22.91
2017-04-06T03:43:01.810Z,22.99
2017-04-06T03:44:01.747Z,22.98
2017-04-06T03:45:01.685Z,22.94
2017-04-06T03:46:01.635Z,22.93
2017-04-06T03:47:01.559Z,22.94
2017-04-06T03:48:01.496Z,22.93
2017-04-06T03:49:01.431Z,22.94
2017-04-06T03:50:01.366Z,22.94
2017-04-06T03:51:01.312Z,22.88
2017-04-06T03:52:01.244Z,22.91
2017-04-06T03:53:01.188Z,22.96
2017-04-06T03:54:01.119Z,22.88
2017-04-06T03:55:01.058Z,22.9
2017-04-06T03:56:00.696Z,22.91
2017-04-06T03:57:00.937Z,22.87
2017-04-06T03:58:00.568Z,23
2017-04-06T03:59:00.513Z,22.99
2017-04-06T04:00:00.746Z,22.96
2017-04-06T04:01:00.684Z,22.91
2017-04-06T04:02:00.618Z,22.93
2017-04-06T04:03:00.557Z,22.93
2017-04-06T04:04:00.495Z,22.98
2017-04-06T04:05:00.430Z,22.88
2017-04-06T04:06:00.367Z,22.96
2017-04-06T04:07:00.305Z,22.91
2017-04-06T04:08:00.245Z,22.98
2017-04-06T04:09:00.178Z,22.96
2017-04-06T04:10:00.118Z,22.94
2017-04-06T04:11:00.053Z,23.02
2017-04-06T04:11:59.998Z,23.02
2017-04-06T04:12:59.927Z,22.91
2017-04-06T04:13:59.866Z,22.98
2017-04-06T04:14:59.805Z,22.88
2017-04-06T04:15:59.741Z,23
2017-04-06T04:16:59.376Z,22.99
2017-04-06T04:17:59.615Z,22.94
2017-04-06T04:18:59.554Z,22.96
2017-04-06T04:19:59.489Z,22.98
2017-04-06T04:20:59.429Z,22.99
2017-04-06T04:21:59.367Z,22.9
2017-04-06T04:22:59.301Z,22.98
2017-04-06T04:23:59.240Z,22.88
2017-04-06T04:24:59.176Z,22.88
2017-04-06T04:25:59.126Z,23
2017-04-06T04:26:59.051Z,22.88
2017-04-06T04:27:58.988Z,22.94
2017-04-06T04:28:58.930Z,23.02
2017-04-06T04:29:58.865Z,22.91
2017-04-06T04:30:58.802Z,22.98
2017-04-06T04:31:58.739Z,22.91
2017-04-06T04:32:58.675Z,22.96
2017-04-06T04:33:58.615Z,22.91
2017-04-06T04:34:58.547Z,22.94
2017-04-06T04:35:58.487Z,22.96
2017-04-06T04:36:58.425Z,22.94
2017-04-06T04:37:58.361Z,23
2017-04-06T04:38:58.299Z,22.96
2017-04-06T04:39:58.249Z,22.99
2017-04-06T04:40:58.178Z,22.96
2017-04-06T04:41:58.117Z,22.98
2017-04-06T04:42:58.048Z,22.88
2017-04-06T04:43:57.685Z,22.87
2017-04-06T04:44:57.926Z,22.98
2017-04-06T04:45:57.865Z,22.87
2017-04-06T04:46:57.798Z,23
2017-04-06T04:47:57.736Z,22.94
2017-04-06T04:48:57.673Z,22.93
2017-04-06T04:49:57.613Z,22.94
2017-04-06T04:50:57.549Z,22.94
2017-04-06T04:51:57.485Z,22.96
2017-04-06T04:52:57.423Z,22.94
2017-04-06T04:53:57.365Z,22.94
2017-04-06T04:54:57.297Z,22.94
2017-04-06T04:55:57.240Z,22.98
2017-04-06T04:56:57.174Z,22.96
2017-04-06T04:57:56.807Z,22.87
2017-04-06T04:58:57.051Z,22.93
2017-04-06T04:59:56.984Z,22.99
2017-04-06T05:00:56.922Z,22.9
2017-04-06T05:01:56.863Z,22.91
2017-04-06T05:02:56.795Z,22.94
2017-04-06T05:03:56.734Z,22.93
2017-04-06T05:04:56.672Z,22.9
2017-04-06T05:05:56.622Z,22.94
2017-04-06T05:06:56.244Z,22.91
2017-04-06T05:07:56.187Z,22.94
2017-04-06T05:08:56.431Z,22.98
2017-04-06T05:09:56.360Z,22.88
2017-04-06T05:10:56.297Z,22.9
2017-04-06T05:11:56.236Z,22.91
2017-04-06T05:12:56.171Z,22.91
2017-04-06T05:13:56.107Z,22.88
2017-04-06T05:14:56.046Z,22.85
2017-04-06T05:15:55.983Z,22.98
2017-04-06T05:16:55.921Z,22.9
2017-04-06T05:17:55.855Z,22.94
2017-04-06T05:18:55.795Z,22.94
2017-04-06T05:19:55.733Z,22.9
2017-04-06T05:20:55.668Z,22.85
2017-04-06T05:21:55.606Z,22.88
2017-04-06T05:22:55.544Z,22.98
2017-04-06T05:23:55.490Z,22.91
2017-04-06T05:24:55.420Z,22.93
2017-04-06T05:25:55.355Z,22.87
2017-04-06T05:26:55.295Z,22.99
2017-04-06T05:27:55.229Z,22.9
2017-04-06T05:28:55.170Z,23
2017-04-06T05:29:55.106Z,22.98
2017-04-06T05:30:55.395Z,22.98
2017-04-06T05:31:54.982Z,22.93
2017-04-06T05:32:54.915Z,22.96
2017-04-06T05:33:54.551Z,22.98
2017-04-06T05:34:54.792Z,23.02
2017-04-06T05:35:54.731Z,23.03
2017-04-06T05:36:54.666Z,22.98
2017-04-06T05:37:54.315Z,23.05
2017-04-06T05:38:54.540Z,22.99
2017-04-06T05:39:54.481Z,23.02
2017-04-06T05:40:54.415Z,22.91
2017-04-06T05:41:54.353Z,22.99
2017-04-06T05:42:54.290Z,22.98
2017-04-06T05:43:54.232Z,22.98
2017-04-06T05:44:54.169Z,22.99
2017-04-06T05:45:53.799Z,22.98
2017-04-06T05:46:54.043Z,23.02
2017-04-06T05:47:53.976Z,22.94
2017-04-06T05:48:53.913Z,23
2017-04-06T05:49:53.851Z,23.02
2017-04-06T05:50:53.492Z,23.05
2017-04-06T05:51:53.740Z,22.94
2017-04-06T05:52:53.671Z,22.96
2017-04-06T05:53:53.606Z,22.88
2017-04-06T05:54:53.538Z,22.94
2017-04-06T05:55:53.476Z,22.88
2017-04-06T05:56:53.413Z,22.99
2017-04-06T05:57:53.350Z,22.96
2017-04-06T05:58:52.983Z,22.98
2017-04-06T05:59:53.224Z,22.91
2017-04-06T06:00:53.164Z,22.96
2017-04-06T06:01:53.098Z,22.96
2017-04-06T06:02:53.037Z,22.9
2017-04-06T06:03:52.973Z,22.93
2017-04-06T06:04:52.911Z,22.91
2017-04-06T06:05:52.952Z,23.02
2017-04-06T06:06:52.786Z,22.96
2017-04-06T06:07:52.427Z,22.93
2017-04-06T06:08:52.662Z,22.98
2017-04-06T06:09:52.598Z,22.91
2017-04-06T06:10:52.637Z,22.96
2017-04-06T06:11:52.476Z,22.99
2017-04-06T06:12:52.622Z,22.94
2017-04-06T06:13:52.347Z,22.93
2017-04-06T06:14:52.284Z,22.98
2017-04-06T06:15:52.225Z,22.96
2017-04-06T06:16:52.160Z,22.9
2017-04-06T06:17:52.096Z,22.94
2017-04-06T06:18:51.735Z,22.99
2017-04-06T06:19:51.672Z,22.93
2017-04-06T06:20:51.911Z,22.91
2017-04-06T06:21:51.545Z,22.94
2017-04-06T06:22:51.783Z,22.94
2017-04-06T06:23:51.720Z,22.94
2017-04-06T06:24:51.657Z,22.9
2017-04-06T06:25:51.607Z,22.88
2017-04-06T06:26:51.534Z,22.94
2017-04-06T06:27:51.469Z,22.96
2017-04-06T06:28:51.411Z,22.99
2017-04-06T06:29:51.351Z,22.96
2017-04-06T06:30:51.281Z,23
2017-04-06T06:31:51.220Z,22.94
2017-04-06T06:32:51.156Z,22.87
2017-04-06T06:33:51.097Z,22.96
2017-04-06T06:34:50.730Z,23
2017-04-06T06:35:50.968Z,22.98
2017-04-06T06:36:50.911Z,22.9
2017-04-06T06:37:50.555Z,22.94
2017-04-06T06:38:50.781Z,22.99
2017-04-06T06:39:50.728Z,22.98
2017-04-06T06:40:50.657Z,23
2017-04-06T06:41:50.596Z,23.03
2017-04-06T06:42:50.536Z,22.94
2017-04-06T06:43:50.467Z,23.03
2017-04-06T06:44:50.406Z,23.06
2017-04-06T06:45:50.342Z,23.02
2017-04-06T06:46:50.278Z,23.02
2017-04-06T06:47:50.217Z,23.03
2017-04-06T06:48:50.156Z,22.91
2017-04-06T06:49:50.090Z,22.9
2017-04-06T06:50:50.036Z,22.96
2017-04-06T06:51:49.978Z,22.91
2017-04-06T06:52:49.803Z,22.98
2017-04-06T06:53:49.838Z,22.91
2017-04-06T06:54:49.783Z,22.85
2017-04-06T06:55:49.718Z,22.91
2017-04-06T06:56:49.655Z,22.91
2017-04-06T06:57:49.589Z,22.93
2017-04-06T06:58:49.529Z,22.91
2017-04-06T06:59:49.473Z,22.9
2017-04-06T07:00:49.400Z,22.94
2017-04-06T07:01:49.342Z,22.98
2017-04-06T07:02:49.280Z,22.91
2017-04-06T07:03:49.227Z,22.98
2017-04-06T07:04:49.153Z,22.98
2017-04-06T07:05:49.241Z,23.03
2017-04-06T07:06:49.026Z,23.02
2017-04-06T07:07:48.962Z,23.02
2017-04-06T07:08:48.898Z,23
2017-04-06T07:09:48.837Z,23.06
2017-04-06T07:10:48.783Z,23.05
2017-04-06T07:11:48.720Z,23.05
2017-04-06T07:12:48.654Z,23.08
2017-04-06T07:13:48.585Z,23.09
2017-04-06T07:14:48.523Z,23.1
2017-04-06T07:15:48.493Z,23.1
2017-04-06T07:16:48.399Z,23.2
2017-04-06T07:17:48.338Z,23.2
2017-04-06T07:18:47.968Z,23.1
2017-04-06T07:19:48.209Z,23.2
2017-04-06T07:20:48.150Z,23.15
2017-04-06T07:21:48.087Z,23.13
2017-04-06T07:22:48.029Z,23.13
2017-04-06T07:23:47.961Z,23.17
2017-04-06T07:24:47.898Z,23.12
2017-04-06T07:25:47.840Z,23.13
2017-04-06T07:26:47.772Z,23.13
2017-04-06T07:27:47.712Z,23.18
2017-04-06T07:28:47.648Z,23.21
2017-04-06T07:29:47.584Z,23.15
2017-04-06T07:30:47.255Z,23.13
2017-04-06T07:31:47.469Z,23.17
2017-04-06T07:32:47.096Z,23.25
2017-04-06T07:33:47.342Z,23.24
2017-04-06T07:34:47.271Z,23.17
2017-04-06T07:35:47.219Z,23.23
2017-04-06T07:36:47.158Z,23.23
2017-04-06T07:37:47.085Z,23.24
2017-04-06T07:38:46.756Z,23.2
2017-04-06T07:39:46.961Z,23.25
2017-04-06T07:40:46.899Z,23.24
2017-04-06T07:41:46.847Z,23.17
2017-04-06T07:42:46.775Z,23.23
2017-04-06T07:43:46.710Z,23.25
2017-04-06T07:44:46.651Z,23.23
2017-04-06T07:45:46.596Z,23.25
2017-04-06T07:46:46.543Z,23.32
2017-04-06T07:47:46.465Z,23.27
2017-04-06T07:48:46.405Z,23.27
2017-04-06T07:49:46.336Z,23.32
2017-04-06T07:50:46.274Z,23.27
2017-04-06T07:51:46.214Z,23.34
2017-04-06T07:52:46.151Z,23.37
2017-04-06T07:53:46.116Z,23.25
2017-04-06T07:54:46.027Z,23.37
2017-04-06T07:55:45.968Z,23.25
2017-04-06T07:56:45.905Z,23.39
2017-04-06T07:57:45.839Z,23.31
2017-04-06T07:58:45.474Z,23.31
2017-04-06T07:59:45.715Z,23.25
2017-04-06T08:00:45.651Z,23.31
2017-04-06T08:01:45.590Z,23.34
2017-04-06T08:02:45.535Z,23.32
2017-04-06T08:03:45.163Z,23.41
2017-04-06T08:04:45.403Z,23.4
2017-04-06T08:05:45.340Z,23.44
2017-04-06T08:06:44.977Z,23.32
2017-04-06T08:07:45.219Z,23.47
2017-04-06T08:08:45.163Z,23.46
2017-04-06T08:09:45.096Z,23.39
2017-04-06T08:10:45.033Z,23.44
2017-04-06T08:11:44.978Z,23.44
2017-04-06T08:12:44.915Z,23.41
2017-04-06T08:13:44.845Z,23.47
2017-04-06T08:14:44.498Z,23.46
2017-04-06T08:15:44.722Z,23.46
2017-04-06T08:16:44.664Z,23.44
2017-04-06T08:17:44.601Z,23.48
2017-04-06T08:18:44.538Z,23.44
2017-04-06T08:19:44.471Z,23.46
2017-04-06T08:20:44.507Z,23.55
2017-04-06T08:21:44.049Z,23.55
2017-04-06T08:22:44.295Z,23.56
2017-04-06T08:23:44.222Z,23.54
2017-04-06T08:24:44.160Z,23.55
2017-04-06T08:25:43.802Z,23.59
2017-04-06T08:26:44.038Z,23.5
2017-04-06T08:27:43.992Z,23.54
2017-04-06T08:28:43.918Z,23.54
2017-04-06T08:29:44.138Z,23.58
2017-04-06T08:30:43.184Z,23.46
2017-04-06T08:31:43.728Z,23.65
2017-04-06T08:32:43.663Z,23.62
2017-04-06T08:33:43.605Z,23.58
2017-04-06T08:34:43.540Z,23.56
2017-04-06T08:35:43.478Z,23.56
2017-04-06T08:36:43.425Z,23.61
2017-04-06T08:37:43.086Z,23.61
2017-04-06T08:38:43.289Z,23.66
2017-04-06T08:39:43.228Z,23.58
2017-04-06T08:40:43.170Z,23.59
2017-04-06T08:41:42.569Z,23.63
2017-04-06T08:42:43.112Z,23.62
2017-04-06T08:43:42.688Z,23.69
2017-04-06T08:44:42.919Z,23.68
2017-04-06T08:45:42.714Z,23.68
2017-04-06T08:46:42.793Z,23.62
2017-04-06T08:47:42.738Z,23.62
2017-04-06T08:48:42.673Z,23.69
2017-04-06T08:49:42.610Z,23.71
2017-04-06T08:50:42.705Z,23.69
2017-04-06T08:51:42.482Z,23.66
2017-04-06T08:52:42.421Z,23.74
2017-04-06T08:53:42.057Z,23.71
2017-04-06T08:54:41.995Z,23.76
2017-04-06T08:55:42.242Z,23.76
2017-04-06T08:56:42.176Z,23.74
2017-04-06T08:57:42.162Z,23.68
2017-04-06T08:58:42.057Z,23.69
2017-04-06T08:59:41.990Z,23.69
2017-04-06T09:00:41.942Z,23.78
2017-04-06T09:01:41.565Z,23.77
2017-04-06T09:02:41.801Z,23.73
2017-04-06T09:03:41.440Z,23.74
2017-04-06T09:04:41.093Z,23.8
2017-04-06T09:05:41.322Z,23.83
2017-04-06T09:06:41.252Z,23.83
2017-04-06T09:07:41.494Z,23.8
2017-04-06T09:08:41.430Z,23.83
2017-04-06T09:09:41.373Z,23.84
2017-04-06T09:10:41.326Z,23.76
2017-04-06T09:11:41.252Z,23.77
2017-04-06T09:12:41.198Z,23.81
2017-04-06T09:13:41.179Z,23.78
2017-04-06T09:14:41.065Z,23.77
2017-04-06T09:15:41.002Z,23.8
2017-04-06T09:16:40.943Z,23.77
2017-04-06T09:17:40.871Z,23.73
2017-04-06T09:18:40.829Z,23.76
2017-04-06T09:19:40.773Z,23.78
2017-04-06T09:20:41.040Z,23.73
2017-04-06T09:21:40.627Z,23.71
2017-04-06T09:22:40.562Z,23.69
2017-04-06T09:23:40.504Z,23.62
2017-04-06T09:24:40.445Z,23.63
2017-04-06T09:25:40.985Z,23.69
2017-04-06T09:26:40.316Z,23.71
2017-04-06T09:27:40.254Z,23.69
2017-04-06T09:28:39.891Z,23.66
2017-04-06T09:29:40.134Z,23.69
2017-04-06T09:30:40.067Z,23.69
2017-04-06T09:31:40.009Z,23.59
2017-04-06T09:32:39.947Z,23.66
2017-04-06T09:33:39.890Z,23.69
2017-04-06T09:34:39.520Z,23.68
2017-04-06T09:35:39.761Z,23.74
2017-04-06T09:36:39.717Z,23.74
2017-04-06T09:37:39.640Z,23.74
2017-04-06T09:38:38.969Z,23.74
2017-04-06T09:39:39.512Z,23.74
2017-04-06T09:40:39.150Z,23.78
2017-04-06T09:41:39.388Z,23.8
2017-04-06T09:42:39.037Z,23.74
2017-04-06T09:43:38.961Z,23.77
2017-04-06T09:44:38.898Z,23.77
2017-04-06T09:45:39.146Z,23.83
2017-04-06T09:46:38.777Z,23.78
2017-04-06T09:47:39.016Z,23.8
2017-04-06T09:48:38.959Z,23.83
2017-04-06T09:49:38.893Z,23.8
2017-04-06T09:50:38.832Z,23.81
2017-04-06T09:51:38.769Z,23.76
2017-04-06T09:52:38.710Z,23.84
2017-04-06T09:53:38.648Z,23.8
2017-04-06T09:54:38.586Z,23.84
2017-04-06T09:55:38.522Z,23.84
2017-04-06T09:56:38.161Z,23.83
2017-04-06T09:57:38.406Z,23.81
2017-04-06T09:58:38.335Z,23.76
2017-04-06T09:59:38.275Z,23.84
2017-04-06T10:00:38.214Z,23.87
2017-04-06T10:01:38.151Z,23.83
2017-04-06T10:02:38.089Z,23.84
2017-04-06T10:03:38.028Z,23.8
2017-04-06T10:04:37.674Z,23.88
2017-04-06T10:05:37.919Z,23.8
2017-04-06T10:06:37.554Z,23.91
2017-04-06T10:07:37.778Z,23.91
2017-04-06T10:08:37.718Z,23.92
2017-04-06T10:09:37.658Z,23.86
2017-04-06T10:10:37.595Z,23.81
2017-04-06T10:11:37.544Z,23.8
2017-04-06T10:12:37.473Z,23.92
2017-04-06T10:13:37.104Z,23.8
2017-04-06T10:14:37.349Z,23.87
2017-04-06T10:15:37.287Z,23.88
2017-04-06T10:16:37.229Z,23.93
2017-04-06T10:17:37.172Z,23.91
2017-04-06T10:18:37.102Z,23.81
2017-04-06T10:19:37.044Z,23.93
2017-04-06T10:20:36.675Z,23.96
2017-04-06T10:21:36.955Z,23.95
2017-04-06T10:22:36.548Z,23.99
2017-04-06T10:23:36.793Z,23.92
2017-04-06T10:24:36.729Z,23.99
2017-04-06T10:25:36.671Z,23.92
2017-04-06T10:26:36.609Z,23.91
2017-04-06T10:27:36.547Z,23.87
2017-04-06T10:28:36.485Z,23.92
2017-04-06T10:29:36.422Z,23.8
2017-04-06T10:30:36.360Z,23.86
2017-04-06T10:31:36.300Z,23.87
2017-04-06T10:32:36.241Z,23.92
2017-04-06T10:33:36.175Z,23.88
2017-04-06T10:34:35.522Z,23.83
2017-04-06T10:35:36.055Z,23.87
2017-04-06T10:36:35.989Z,23.92
2017-04-06T10:37:35.625Z,23.92
2017-04-06T10:38:35.868Z,23.92
2017-04-06T10:39:35.503Z,24.01
2017-04-06T10:40:35.744Z,23.87
2017-04-06T10:41:35.685Z,23.88
2017-04-06T10:42:35.624Z,23.88
2017-04-06T10:43:35.571Z,23.91
2017-04-06T10:44:35.502Z,23.84
2017-04-06T10:45:35.452Z,23.95
2017-04-06T10:46:35.372Z,23.92
2017-04-06T10:47:35.313Z,23.88
2017-04-06T10:48:34.953Z,23.91
2017-04-06T10:49:35.191Z,23.81
2017-04-06T10:50:34.828Z,23.81
2017-04-06T10:51:34.765Z,23.78
2017-04-06T10:52:34.401Z,23.83
2017-04-06T10:53:34.951Z,23.81
2017-04-06T10:54:34.579Z,23.81
2017-04-06T10:55:34.530Z,23.86
2017-04-06T10:56:34.766Z,23.81
2017-04-06T10:57:34.702Z,23.81
2017-04-06T10:58:34.633Z,23.8
2017-04-06T10:59:34.269Z,23.78
2017-04-06T11:00:34.436Z,23.78
2017-04-06T11:01:34.449Z,23.71
2017-04-06T11:02:34.396Z,23.74
2017-04-06T11:03:34.325Z,23.74
2017-04-06T11:04:34.435Z,23.81
2017-04-06T11:05:34.203Z,23.86
2017-04-06T11:06:33.837Z,23.8
2017-04-06T11:07:34.081Z,23.8
2017-04-06T11:08:34.016Z,23.84
2017-04-06T11:09:33.956Z,23.8
2017-04-06T11:10:33.903Z,23.83
2017-04-06T11:11:33.834Z,23.77
2017-04-06T11:12:33.767Z,23.81
2017-04-06T11:13:33.706Z,23.83
2017-04-06T11:14:33.660Z,23.81
2017-04-06T11:15:33.594Z,23.77
2017-04-06T11:16:33.218Z,23.78
2017-04-06T11:17:33.170Z,23.84
2017-04-06T11:18:33.411Z,23.8
2017-04-06T11:19:33.054Z,23.8
2017-04-06T11:20:32.987Z,23.78
2017-04-06T11:21:33.226Z,23.83
2017-04-06T11:22:33.169Z,23.86
2017-04-06T11:23:32.796Z,23.83
2017-04-06T11:24:32.736Z,23.78
2017-04-06T11:25:32.981Z,23.84
2017-04-06T11:26:32.919Z,23.77
2017-04-06T11:27:32.862Z,23.8
2017-04-06T11:28:32.784Z,23.8
2017-04-06T11:29:32.718Z,23.8
2017-04-06T11:30:32.656Z,23.92
2017-04-06T11:31:32.594Z,23.8
2017-04-06T11:32:32.534Z,23.86
2017-04-06T11:33:32.468Z,23.87
2017-04-06T11:34:32.418Z,23.83
2017-04-06T11:35:32.081Z,23.91
2017-04-06T11:36:31.984Z,23.87
2017-04-06T11:37:31.917Z,23.8
2017-04-06T11:38:32.165Z,23.81
2017-04-06T11:39:32.100Z,23.81
2017-04-06T11:40:32.037Z,23.78
2017-04-06T11:41:31.669Z,23.87
2017-04-06T11:42:31.910Z,23.93
2017-04-06T11:43:31.848Z,23.84
2017-04-06T11:44:31.789Z,23.86
2017-04-06T11:45:31.420Z,23.93
2017-04-06T11:46:31.664Z,23.84
2017-04-06T11:47:31.604Z,23.92
2017-04-06T11:48:31.537Z,23.87
2017-04-06T11:49:31.491Z,23.91
2017-04-06T11:50:31.415Z,23.84
2017-04-06T11:51:31.355Z,23.88
2017-04-06T11:52:31.294Z,23.8
2017-04-06T11:53:31.229Z,23.93
2017-04-06T11:54:31.383Z,23.95
2017-04-06T11:55:31.111Z,23.88
2017-04-06T11:56:31.050Z,23.8
2017-04-06T11:57:30.982Z,23.86
2017-04-06T11:58:30.920Z,23.88
2017-04-06T11:59:30.880Z,23.83
2017-04-06T12:00:30.795Z,23.88
2017-04-06T12:01:30.736Z,23.91
2017-04-06T12:02:30.670Z,23.87
2017-04-06T12:03:30.607Z,23.86
2017-04-06T12:04:30.547Z,23.77
2017-04-06T12:05:30.486Z,23.8
2017-04-06T12:06:30.435Z,23.93
2017-04-06T12:07:30.367Z,23.91
2017-04-06T12:08:30.322Z,23.98
2017-04-06T12:09:30.240Z,23.83
2017-04-06T12:10:30.220Z,23.92
2017-04-06T12:11:30.111Z,23.78
2017-04-06T12:12:30.051Z,23.92
2017-04-06T12:13:30.002Z,23.93
2017-04-06T12:14:29.935Z,23.83
2017-04-06T12:15:29.864Z,23.95
2017-04-06T12:16:29.501Z,23.84
2017-04-06T12:17:29.740Z,23.91
2017-04-06T12:18:29.679Z,23.92
2017-04-06T12:19:29.109Z,23.84
2017-04-06T12:20:29.577Z,23.87
2017-04-06T12:21:29.496Z,23.87
2017-04-06T12:22:29.434Z,23.84
2017-04-06T12:23:29.066Z,23.87
2017-04-06T12:24:29.308Z,23.88
2017-04-06T12:25:29.245Z,23.91
2017-04-06T12:26:29.183Z,23.98
2017-04-06T12:27:29.141Z,23.99
2017-04-06T12:28:29.143Z,23.86
2017-04-06T12:29:28.999Z,23.88
2017-04-06T12:30:28.938Z,24.03
2017-04-06T12:31:28.880Z,23.98
2017-04-06T12:32:28.823Z,23.88
2017-04-06T12:33:28.798Z,23.93
2017-04-06T12:34:28.690Z,23.98
2017-04-06T12:35:28.653Z,23.96
2017-04-06T12:36:28.568Z,23.95
2017-04-06T12:37:28.506Z,23.96
2017-04-06T12:38:28.444Z,23.93
2017-04-06T12:39:28.379Z,23.96
2017-04-06T12:40:28.325Z,23.91
2017-04-06T12:41:27.957Z,23.96
2017-04-06T12:42:28.203Z,24.05
2017-04-06T12:43:28.145Z,23.96
2017-04-06T12:44:28.072Z,24.06
2017-04-06T12:45:28.016Z,23.99
2017-04-06T12:46:27.957Z,23.96
2017-04-06T12:47:27.889Z,24.02
2017-04-06T12:48:27.828Z,24.01
2017-04-06T12:49:27.769Z,23.96
2017-04-06T12:50:27.402Z,24.06
2017-04-06T12:51:27.642Z,24.06
2017-04-06T12:52:27.587Z,23.95
2017-04-06T12:53:27.222Z,24.05
2017-04-06T12:54:27.460Z,23.95
2017-04-06T12:55:27.112Z,24.11
2017-04-06T12:56:27.339Z,23.93
2017-04-06T12:57:27.272Z,23.99
2017-04-06T12:58:27.214Z,24.05